Time;durP1;ratioP1;P1;durP2;ratioP2;P2;SDS_P1;SDS_P2;PMS_P1;PMS_P2;Temp;Humidity;BMP_temperature;BMP_pressure;BME280_temperature;BME280_humidity;BME280_pressure;Samples;Min_cycle;Max_cycle;Signal;HPM_P1;HPM_P2
2022/04/02 00:00:22;;;;;;;;;0.00;0.00;;;;;15.12;54.44;101752.34;4914494;29;9525;-69
2022/04/02 00:02:47;;;;;;;;;0.00;0.00;;;;;15.12;54.37;101754.97;4914886;29;8816;-68
2022/04/02 00:05:12;;;;;;;;;0.00;0.00;;;;;15.10;54.27;101749.72;4914146;29;8843;-68
2022/04/02 00:07:38;;;;;;;;;0.00;0.00;;;;;15.13;54.27;101756.75;4913886;29;8871;-68
2022/04/02 00:10:05;;;;;;;;;0.00;0.00;;;;;15.09;54.32;101747.94;4914629;29;9564;-69
2022/04/02 00:12:31;;;;;;;;;0.00;0.00;;;;;15.11;54.36;101750.59;4926761;29;8822;-69
2022/04/02 00:14:56;;;;;;;;;0.00;0.00;;;;;15.14;54.61;101755.91;4933407;29;9294;-69
2022/04/02 00:17:21;;;;;;;;;0.00;0.00;;;;;15.15;54.25;101755.03;4934396;29;8849;-69
2022/04/02 00:19:47;;;;;;;;;0.00;0.00;;;;;15.15;53.96;101749.75;4934560;29;8805;-69
2022/04/02 00:22:12;;;;;;;;;0.00;0.00;;;;;15.14;54.00;101748.91;4933568;29;8829;-69
2022/04/02 00:24:38;;;;;;;;;0.00;0.00;;;;;15.14;54.20;101748.00;4934311;29;8793;-68
2022/04/02 00:27:03;;;;;;;;;0.00;0.00;;;;;15.15;53.84;101740.13;4933201;29;8827;-69
2022/04/02 00:29:29;;;;;;;;;0.00;0.00;;;;;15.15;53.55;101741.88;4933638;29;8794;-69
2022/04/02 00:31:57;;;;;;;;;0.00;0.00;;;;;15.14;53.72;101740.13;4933553;29;8860;-69
2022/04/02 00:34:22;;;;;;;;;0.00;0.00;;;;;15.14;53.81;101741.00;4932675;29;8839;-69
2022/04/02 00:36:48;;;;;;;;;0.00;0.00;;;;;15.15;53.47;101736.59;4933567;29;9170;-68
2022/04/02 00:39:13;;;;;;;;;0.00;0.00;;;;;15.17;53.38;101737.53;4933227;29;8928;-69
2022/04/02 00:41:39;;;;;;;;;0.00;0.00;;;;;15.14;53.45;101732.22;4932889;29;8817;-69
2022/04/02 00:44:12;;;;;;;;;0.00;0.00;;;;;15.14;53.47;101734.88;4933325;29;8845;-68
2022/04/02 00:46:42;;;;;;;;;0.00;0.00;;;;;15.15;53.36;101734.88;4933897;29;9565;-68
2022/04/02 00:49:09;;;;;;;;;0.00;0.00;;;;;15.14;53.30;101733.13;4932873;29;9202;-70
2022/04/02 00:51:41;;;;;;;;;0.00;0.00;;;;;15.14;53.01;101735.75;4933839;29;9225;-69
2022/04/02 00:54:09;;;;;;;;;0.00;0.00;;;;;15.13;53.04;101731.34;4933578;29;10124;-68
2022/04/02 00:56:35;;;;;;;;;1.00;0.00;;;;;15.14;53.04;101741.00;4932661;29;9238;-68
2022/04/02 00:59:01;;;;;;;;;0.00;0.00;;;;;15.12;52.81;101733.94;4933228;29;9321;-69
2022/04/02 01:01:26;;;;;;;;;0.33;0.00;;;;;15.15;52.88;101745.38;4933301;29;9217;-68
2022/04/02 01:03:52;;;;;;;;;0.00;0.00;;;;;15.12;53.07;101749.72;4932907;29;11650;-69
2022/04/02 01:06:17;;;;;;;;;0.00;0.00;;;;;15.14;52.79;101750.66;4933553;29;8801;-69
2022/04/02 01:08:43;;;;;;;;;0.00;0.00;;;;;15.12;52.71;101754.97;4933359;29;8908;-69
2022/04/02 01:11:08;;;;;;;;;0.00;0.00;;;;;15.15;52.68;101749.75;4932603;29;8818;-69
2022/04/02 01:13:34;;;;;;;;;1.00;0.00;;;;;15.13;52.48;101756.75;4930833;29;8871;-69
2022/04/02 01:15:59;;;;;;;;;0.00;0.00;;;;;15.14;52.46;101761.16;4933001;29;8853;-69
2022/04/02 01:18:24;;;;;;;;;0.33;0.00;;;;;15.11;52.13;101758.47;4932588;29;8817;-68
2022/04/02 01:20:50;;;;;;;;;0.00;0.00;;;;;15.12;52.33;101757.59;4933210;29;8806;-69
2022/04/02 01:23:15;;;;;;;;;0.00;0.00;;;;;15.14;52.29;101761.16;4931872;29;8802;-68
2022/04/02 01:25:41;;;;;;;;;0.00;0.00;;;;;15.12;52.23;101753.22;4933359;29;8801;-69
2022/04/02 01:28:06;;;;;;;;;0.00;0.00;;;;;15.16;52.24;101759.44;4933037;29;8806;-69
2022/04/02 01:30:32;;;;;;;;;0.00;0.00;;;;;15.13;52.26;101751.50;4932438;29;8822;-69
2022/04/02 01:32:58;;;;;;;;;0.00;0.00;;;;;15.16;52.06;101762.94;4933153;29;8790;-69
2022/04/02 01:35:24;;;;;;;;;0.00;0.00;;;;;15.13;51.94;101757.66;4933266;29;9691;-69
2022/04/02 01:37:50;;;;;;;;;0.67;0.00;;;;;15.13;51.90;101759.38;4932675;29;9387;-68
2022/04/02 01:40:16;;;;;;;;;0.00;0.00;;;;;15.15;51.72;101757.66;4932836;29;8821;-68
2022/04/02 01:42:42;;;;;;;;;0.00;0.00;;;;;15.13;51.81;101757.66;4933130;29;9370;-69
2022/04/02 01:45:11;;;;;;;;;0.00;0.00;;;;;15.14;51.65;101751.53;4931989;29;8794;-69
2022/04/02 01:47:36;;;;;;;;;0.00;0.00;;;;;15.15;51.43;101753.28;4933297;29;8825;-68
2022/04/02 01:50:06;;;;;;;;;0.00;0.00;;;;;15.16;51.37;101755.06;4932838;29;9312;-69
2022/04/02 01:52:31;;;;;;;;;0.00;0.00;;;;;15.15;51.37;101758.53;4932441;29;8932;-69
2022/04/02 01:54:56;;;;;;;;;0.00;0.00;;;;;15.14;51.28;101759.44;4932735;29;9331;-68
2022/04/02 01:57:22;;;;;;;;;0.00;0.00;;;;;15.14;51.42;101767.31;4933129;29;8846;-69
2022/04/02 01:59:49;;;;;;;;;0.00;0.00;;;;;15.14;51.14;101772.56;4932316;29;9656;-69
2022/04/02 02:02:15;;;;;;;;;0.00;0.00;;;;;15.12;51.16;101768.13;4932579;29;8823;-68
2022/04/02 02:04:41;;;;;;;;;0.00;0.00;;;;;15.13;51.29;101768.16;4933152;29;9275;-69
2022/04/02 02:07:06;;;;;;;;;0.00;0.00;;;;;15.12;51.03;101770.75;4931837;29;9343;-68
2022/04/02 02:09:32;;;;;;;;;0.00;0.00;;;;;15.12;50.97;101762.88;4932940;29;8826;-68
2022/04/02 02:11:58;;;;;;;;;0.00;0.00;;;;;15.13;50.87;101764.66;4931525;29;9546;-69
2022/04/02 02:14:23;;;;;;;;;0.00;0.00;;;;;15.12;50.96;101769.00;4931028;29;9302;-69
2022/04/02 02:16:49;;;;;;;;;0.00;0.00;;;;;15.11;50.84;101769.00;4932529;29;8833;-69
2022/04/02 02:19:14;;;;;;;;;0.00;0.00;;;;;15.09;50.67;101763.72;4932529;29;8790;-68
2022/04/02 02:21:39;;;;;;;;;0.00;0.00;;;;;15.11;50.68;101761.13;4932266;29;8806;-69
2022/04/02 02:24:08;;;;;;;;;0.00;0.00;;;;;15.14;50.44;101767.31;4932517;29;8876;-69
2022/04/02 02:26:34;;;;;;;;;0.00;0.00;;;;;15.14;50.61;101769.06;4931569;29;9416;-68
2022/04/02 02:29:00;;;;;;;;;0.00;0.00;;;;;15.13;50.26;101775.16;4931808;29;9366;-68
2022/04/02 02:31:35;;;;;;;;;0.00;0.00;;;;;15.11;50.59;101771.63;4932957;29;9318;-68
2022/04/02 02:36:44;;;;;;;;;0.00;0.00;;;;;15.15;50.14;101770.81;4936170;29;9378;-69
2022/04/02 02:39:10;;;;;;;;;0.00;0.00;;;;;15.12;50.04;101778.66;4934970;29;9309;-69
2022/04/02 02:41:35;;;;;;;;;0.00;0.00;;;;;15.14;50.00;101776.94;4935317;29;8809;-68
2022/04/02 02:44:01;;;;;;;;;0.00;0.00;;;;;15.11;49.82;101766.38;4936241;29;8810;-68
2022/04/02 02:46:26;;;;;;;;;0.00;0.00;;;;;15.13;49.81;101775.16;4936662;29;8870;-68
2022/04/02 02:48:51;;;;;;;;;0.00;0.00;;;;;15.11;49.87;101774.28;4935602;29;8821;-68
2022/04/02 02:51:17;;;;;;;;;0.00;0.00;;;;;15.11;49.81;101774.28;4935964;29;8816;-68
2022/04/02 02:53:44;;;;;;;;;0.00;0.00;;;;;15.12;49.88;101774.28;4935966;29;8822;-68
2022/04/02 02:56:09;;;;;;;;;0.00;0.00;;;;;15.15;49.69;101789.22;4934605;29;9604;-68
2022/04/02 02:58:35;;;;;;;;;0.00;0.00;;;;;15.13;49.48;101780.44;4935785;29;9379;-69
2022/04/02 03:01:00;;;;;;;;;0.00;0.00;;;;;15.12;49.50;101779.53;4935599;29;8793;-69
2022/04/02 03:03:27;;;;;;;;;0.00;0.00;;;;;15.13;49.53;101788.31;4935007;29;8798;-68
2022/04/02 03:05:52;;;;;;;;;0.00;0.00;;;;;15.11;49.52;101776.91;4935677;29;8840;-69
2022/04/02 03:08:17;;;;;;;;;0.00;0.00;;;;;15.10;49.26;101783.00;4935460;29;9319;-68
2022/04/02 03:10:44;;;;;;;;;0.00;0.00;;;;;15.12;49.39;101782.16;4934865;29;8837;-68
2022/04/02 03:13:10;;;;;;;;;0.00;0.00;;;;;15.12;49.13;101781.28;4932814;29;8798;-68
2022/04/02 03:15:35;;;;;;;;;1.00;0.00;;;;;15.14;49.29;101787.47;4935411;29;9353;-68
2022/04/02 03:18:06;;;;;;;;;0.00;0.00;;;;;15.11;49.30;101779.53;4934626;29;11517;-67
2022/04/02 03:20:32;;;;;;;;;0.00;0.00;;;;;15.11;49.19;101779.53;4935695;29;8901;-68
2022/04/02 03:22:57;;;;;;;;;0.00;0.00;;;;;15.13;49.14;101783.06;4934365;29;9319;-68
2022/04/02 03:25:23;;;;;;;;;0.00;0.00;;;;;15.10;49.07;101783.91;4935495;29;9429;-68
2022/04/02 03:27:49;;;;;;;;;0.00;0.00;;;;;15.11;49.11;101787.41;4935547;29;8785;-67
2022/04/02 03:30:18;;;;;;;;;1.00;0.00;;;;;15.09;48.84;101782.13;4934220;29;9347;-68
2022/04/02 03:32:44;;;;;;;;;0.33;0.00;;;;;15.10;48.93;101783.00;4935475;29;8806;-69
2022/04/02 03:35:10;;;;;;;;;0.00;0.00;;;;;15.10;48.76;101788.25;4935032;29;9461;-68
2022/04/02 03:37:37;;;;;;;;;1.00;0.00;;;;;15.10;48.68;101781.28;4934777;29;8829;-68
2022/04/02 03:40:08;;;;;;;;;0.00;0.00;;;;;15.08;48.91;101777.72;4935017;29;9252;-69
2022/04/02 03:42:34;;;;;;;;;0.00;0.00;;;;;15.11;48.79;101777.75;4935210;29;9263;-70
2022/04/02 03:45:00;;;;;;;;;0.00;0.00;;;;;15.10;48.64;101781.28;4933580;29;9284;-68
2022/04/02 03:47:25;;;;;;;;;0.00;0.00;;;;;15.08;48.61;101772.44;4935004;29;9362;-68
2022/04/02 03:49:51;;;;;;;;;1.00;1.00;;;;;15.10;48.42;101776.00;4935018;29;8790;-68
2022/04/02 03:52:17;;;;;;;;;0.00;0.00;;;;;15.10;48.48;101778.63;4933882;29;8798;-68
2022/04/02 03:54:48;;;;;;;;;0.00;0.00;;;;;15.09;48.44;101784.75;4934858;29;9377;-68
2022/04/02 03:57:14;;;;;;;;;0.00;0.00;;;;;15.11;48.35;101785.66;4934660;29;8826;-68
2022/04/02 03:59:43;;;;;;;;;0.00;0.00;;;;;15.09;48.34;101790.00;4933830;29;9417;-69
2022/04/02 04:02:09;;;;;;;;;0.00;0.00;;;;;15.11;48.54;101795.31;4934477;29;9580;-68
2022/04/02 04:04:38;;;;;;;;;0.00;0.00;;;;;15.10;48.42;101794.41;4934427;29;9561;-69
2022/04/02 04:07:04;;;;;;;;;1.00;0.00;;;;;15.10;48.23;101790.91;4933686;29;9345;-69
2022/04/02 04:09:30;;;;;;;;;0.00;0.00;;;;;15.09;48.10;101786.47;4934992;29;9457;-69
2022/04/02 04:11:59;;;;;;;;;0.00;0.00;;;;;15.09;48.10;101800.53;4932990;29;9458;-68
2022/04/02 04:14:25;;;;;;;;;0.00;0.00;;;;;15.08;48.27;101792.59;4932896;29;9298;-68
2022/04/02 04:16:51;;;;;;;;;0.00;0.00;;;;;15.10;47.90;101799.69;4934457;29;9227;-68
2022/04/02 04:19:17;;;;;;;;;0.00;0.00;;;;;15.10;47.94;101806.69;4933619;29;9636;-68
2022/04/02 04:21:43;;;;;;;;;0.00;0.00;;;;;15.11;47.82;101808.47;4934568;29;9307;-69
2022/04/02 04:24:09;;;;;;;;;0.00;0.00;;;;;15.09;48.01;101803.16;4934052;29;9573;-69
2022/04/02 04:26:35;;;;;;;;;0.00;0.00;;;;;15.09;47.88;101810.16;4933922;29;8832;-68
2022/04/02 04:29:01;;;;;;;;;0.00;0.00;;;;;15.09;47.86;101815.41;4933933;29;9287;-68
2022/04/02 04:31:26;;;;;;;;;0.00;0.00;;;;;15.08;47.82;101811.00;4934308;29;8818;-68
2022/04/02 04:33:55;;;;;;;;;0.00;0.00;;;;;15.08;48.08;101811.91;4933763;29;8941;-68
2022/04/02 04:36:20;;;;;;;;;0.00;0.00;;;;;15.08;47.81;101813.63;4934032;29;8825;-68
2022/04/02 04:38:46;;;;;;;;;0.00;0.00;;;;;15.09;47.67;101821.56;4934359;29;9453;-68
2022/04/02 04:41:13;;;;;;;;;0.00;0.00;;;;;15.07;47.80;101823.25;4933273;29;9091;-68
2022/04/02 04:43:41;;;;;;;;;0.00;0.00;;;;;15.07;47.60;101820.63;4934294;29;9251;-67
2022/04/02 04:46:07;;;;;;;;;0.00;0.00;;;;;15.07;47.56;101828.53;4933929;29;9445;-68
2022/04/02 04:48:35;;;;;;;;;0.00;0.00;;;;;15.07;47.53;101830.31;4933755;29;9382;-69
2022/04/02 04:51:01;;;;;;;;;0.00;0.00;;;;;15.08;47.58;101832.94;4934043;29;9269;-68
2022/04/02 04:53:26;;;;;;;;;0.00;0.00;;;;;15.08;47.60;101840.81;4934627;29;9354;-68
2022/04/02 04:55:51;;;;;;;;;0.00;0.00;;;;;15.06;47.32;101839.94;4933164;29;8904;-68
2022/04/02 04:58:16;;;;;;;;;0.00;0.00;;;;;15.02;47.24;101845.97;4933169;29;8774;-68
2022/04/02 05:00:42;;;;;;;;;0.00;0.00;;;;;15.05;47.33;101847.78;4934152;29;9557;-69
2022/04/02 05:03:08;;;;;;;;;0.00;0.00;;;;;15.05;47.26;101853.91;4933128;29;8802;-68
2022/04/02 05:05:34;;;;;;;;;0.00;0.00;;;;;15.04;47.21;101854.78;4934110;29;8794;-68
2022/04/02 05:08:00;;;;;;;;;0.00;0.00;;;;;15.03;47.12;101853.03;4933528;29;9259;-69
2022/04/02 05:10:26;;;;;;;;;0.00;0.00;;;;;15.06;47.16;101865.34;4933417;29;8802;-68
2022/04/02 05:12:51;;;;;;;;;0.00;0.00;;;;;15.02;47.05;101851.25;4931194;29;8829;-68
2022/04/02 05:15:17;;;;;;;;;0.00;0.00;;;;;15.04;47.19;101860.03;4933195;29;9287;-68
2022/04/02 05:17:42;;;;;;;;;0.00;0.00;;;;;15.05;47.18;101856.56;4932715;29;8861;-68
2022/04/02 05:20:11;;;;;;;;;0.00;0.00;;;;;15.04;47.07;101861.78;4933148;29;9552;-69
2022/04/02 05:22:37;;;;;;;;;0.00;0.00;;;;;15.04;47.13;101867.03;4932657;29;8801;-68
2022/04/02 05:25:03;;;;;;;;;0.00;0.00;;;;;15.05;47.07;101858.28;4933057;29;9391;-68
2022/04/02 05:27:28;;;;;;;;;0.00;0.00;;;;;15.04;47.01;101862.66;4933266;29;9356;-69
2022/04/02 05:29:54;;;;;;;;;1.00;0.00;;;;;15.05;46.78;101866.19;4932051;29;9437;-68
2022/04/02 05:32:20;;;;;;;;;0.00;0.00;;;;;15.02;47.00;101864.38;4933289;29;8802;-68
2022/04/02 05:34:45;;;;;;;;;0.00;0.00;;;;;15.03;46.80;101865.28;4933335;29;8804;-68
2022/04/02 05:37:10;;;;;;;;;0.00;0.00;;;;;15.03;46.65;101867.91;4931466;29;8977;-68
2022/04/02 05:39:35;;;;;;;;;0.25;0.00;;;;;15.02;46.67;101869.66;4933428;29;8810;-68
2022/04/02 05:42:01;;;;;;;;;0.00;0.00;;;;;15.03;46.59;101881.94;4932922;29;8797;-68
2022/04/02 05:44:26;;;;;;;;;0.00;0.00;;;;;15.04;46.75;101881.06;4932659;29;9579;-68
2022/04/02 05:46:52;;;;;;;;;0.00;0.00;;;;;15.04;46.86;101893.34;4933309;29;8821;-68
2022/04/02 05:49:18;;;;;;;;;0.25;0.00;;;;;15.02;46.47;101888.06;4932736;29;9554;-68
2022/04/02 05:51:43;;;;;;;;;0.00;0.00;;;;;15.01;46.63;101894.16;4932306;29;8840;-68
2022/04/02 05:54:09;;;;;;;;;1.00;0.00;;;;;15.03;46.56;101891.59;4932879;29;8805;-68
2022/04/02 05:56:34;;;;;;;;;0.00;0.00;;;;;15.02;46.63;101890.69;4933110;29;8944;-68
2022/04/02 05:59:01;;;;;;;;;0.00;0.00;;;;;15.04;46.41;101904.75;4931642;29;9641;-69
2022/04/02 06:01:27;;;;;;;;;0.00;0.00;;;;;15.04;46.57;101901.22;4933230;29;8817;-69
2022/04/02 06:03:53;;;;;;;;;0.00;0.00;;;;;15.09;46.30;101905.72;4933089;29;9361;-68
2022/04/02 06:06:18;;;;;;;;;0.00;0.00;;;;;15.13;46.13;101914.56;4932337;29;8940;-69
2022/04/02 06:08:43;;;;;;;;;0.25;0.00;;;;;15.12;46.30;101910.16;4933569;29;9668;-69
2022/04/02 06:11:09;;;;;;;;;0.00;0.00;;;;;15.14;46.07;101913.72;4936344;29;8829;-68
2022/04/02 06:13:34;;;;;;;;;0.00;0.00;;;;;15.16;45.88;101915.50;4933442;29;8809;-68
2022/04/02 06:16:00;;;;;;;;;0.00;0.00;;;;;15.17;45.70;101924.28;4936125;29;8825;-69
2022/04/02 06:18:25;;;;;;;;;0.00;0.00;;;;;15.20;45.86;101924.34;4936428;29;8821;-69
2022/04/02 06:20:51;;;;;;;;;0.00;0.00;;;;;15.20;45.76;101919.97;4936058;29;9593;-68
2022/04/02 06:23:17;;;;;;;;;0.00;0.00;;;;;15.21;45.68;101929.66;4936451;29;8813;-69
2022/04/02 06:25:43;;;;;;;;;0.00;0.00;;;;;15.22;45.68;101923.50;4935699;29;8845;-69
2022/04/02 06:28:08;;;;;;;;;0.00;0.00;;;;;15.21;45.81;101923.50;4936292;29;9212;-68
2022/04/02 06:30:34;;;;;;;;;0.00;0.00;;;;;15.28;45.77;101930.66;4936317;29;8798;-70
2022/04/02 06:33:03;;;;;;;;;0.00;0.00;;;;;15.23;45.30;101920.03;4935310;29;8828;-69
2022/04/02 06:35:28;;;;;;;;;0.00;0.00;;;;;15.26;45.76;101932.38;4935960;29;9677;-69
2022/04/02 06:37:55;;;;;;;;;0.00;0.00;;;;;15.26;45.47;101940.28;4935767;29;9548;-68
2022/04/02 06:40:22;;;;;;;;;0.00;0.00;;;;;15.25;45.55;101936.75;4935301;29;9597;-68
2022/04/02 06:42:48;;;;;;;;;1.00;0.00;;;;;15.24;45.49;101936.72;4936034;29;9569;-68
2022/04/02 06:45:14;;;;;;;;;0.00;0.00;;;;;15.24;45.45;101939.34;4935693;29;9390;-69
2022/04/02 06:47:40;;;;;;;;;0.00;0.00;;;;;15.23;45.21;101941.09;4935561;29;8916;-68
2022/04/02 06:50:08;;;;;;;;;0.00;0.00;;;;;15.27;45.33;101955.19;4935831;29;9228;-69
2022/04/02 06:52:33;;;;;;;;;0.00;0.00;;;;;15.24;45.31;101955.13;4936095;29;8805;-68
2022/04/02 06:54:59;;;;;;;;;0.00;0.00;;;;;15.26;45.20;101962.19;4935015;29;9403;-69
2022/04/02 06:57:24;;;;;;;;;0.00;0.00;;;;;15.24;45.11;101966.53;4935843;29;8916;-68
2022/04/02 06:59:53;;;;;;;;;0.00;0.00;;;;;15.22;45.10;101968.25;4935962;29;8798;-68
2022/04/02 07:02:20;;;;;;;;;0.00;0.00;;;;;15.26;45.05;101966.59;4935149;29;8814;-68
2022/04/02 07:04:48;;;;;;;;;0.00;0.00;;;;;15.25;45.18;101963.06;4936106;29;9287;-68
2022/04/02 07:07:14;;;;;;;;;0.00;0.00;;;;;15.27;45.03;101971.88;4934988;29;10059;-68
2022/04/02 07:09:39;;;;;;;;;0.00;0.00;;;;;15.26;45.03;101974.47;4934806;29;9430;-68
2022/04/02 07:12:06;;;;;;;;;0.00;0.00;;;;;15.26;44.82;101980.59;4933168;29;8801;-69
2022/04/02 07:14:32;;;;;;;;;0.75;0.00;;;;;15.26;44.93;101980.59;4935410;29;8819;-69
2022/04/02 07:16:58;;;;;;;;;0.00;0.00;;;;;15.28;44.81;101983.28;4934700;29;9385;-68
2022/04/02 07:19:25;;;;;;;;;0.00;0.00;;;;;15.29;44.61;101985.97;4935756;29;8813;-68
2022/04/02 07:21:51;;;;;;;;;0.00;0.00;;;;;15.29;44.85;101992.97;4934461;29;8822;-68
2022/04/02 07:24:18;;;;;;;;;0.00;0.00;;;;;15.29;44.57;101985.06;4934839;29;9205;-68
2022/04/02 07:26:47;;;;;;;;;1.00;0.00;;;;;15.28;44.71;101980.66;4935206;29;9399;-67
2022/04/02 07:29:15;;;;;;;;;0.00;0.00;;;;;15.29;44.60;101982.44;4934023;29;9225;-68
2022/04/02 07:31:42;;;;;;;;;0.00;0.00;;;;;15.28;44.53;101985.91;4935638;29;9206;-68
2022/04/02 07:34:11;;;;;;;;;0.00;0.00;;;;;15.31;44.52;101989.50;4934901;29;9295;-68
2022/04/02 07:37:09;;;;;;;;;0.00;0.00;;;;;15.27;44.25;101992.91;4934436;29;9964;-69
2022/04/02 07:39:48;;;;;;;;;0.00;0.00;;;;;15.29;44.47;101993.84;4935166;29;9422;-68
2022/04/02 07:42:23;;;;;;;;;1.00;0.00;;;;;15.31;44.08;101997.38;4935298;29;9371;-68
2022/04/02 07:45:03;;;;;;;;;0.00;0.00;;;;;15.32;44.28;102004.44;4934687;29;9287;-69
2022/04/02 07:47:35;;;;;;;;;0.00;0.00;;;;;15.35;44.08;102008.84;4934705;29;9367;-68
2022/04/02 07:50:05;;;;;;;;;1.00;1.00;;;;;15.34;44.01;102005.34;4934463;29;9466;-68
2022/04/02 07:52:31;;;;;;;;;0.00;0.00;;;;;15.36;44.17;102019.44;4935255;29;9361;-68
2022/04/02 07:54:58;;;;;;;;;0.00;0.00;;;;;15.34;44.02;102014.97;4934370;29;9223;-68
2022/04/02 07:57:28;;;;;;;;;0.00;0.00;;;;;15.36;43.88;102018.53;4933957;29;9387;-68
2022/04/02 08:00:03;;;;;;;;;0.00;0.00;;;;;15.37;43.87;102018.53;4934406;29;9280;-68
2022/04/02 08:02:38;;;;;;;;;0.75;0.00;;;;;15.37;43.81;102020.31;4934506;29;9279;-68
2022/04/02 08:05:08;;;;;;;;;0.00;0.00;;;;;15.38;43.85;102017.69;4933726;29;9406;-68
2022/04/02 08:07:35;;;;;;;;;0.00;0.00;;;;;15.38;43.84;102022.97;4934386;29;9401;-68
2022/04/02 08:10:07;;;;;;;;;0.00;0.00;;;;;15.39;43.90;102034.38;4934284;29;9292;-68
2022/04/02 08:12:35;;;;;;;;;0.00;0.00;;;;;15.39;44.03;102027.38;4931132;29;10072;-68
2022/04/02 08:15:05;;;;;;;;;0.00;0.00;;;;;15.40;43.69;102025.63;4933827;29;9508;-67
2022/04/02 08:17:32;;;;;;;;;0.00;0.00;;;;;15.39;43.64;102034.38;4934283;29;9409;-67
2022/04/02 08:19:59;;;;;;;;;0.00;0.00;;;;;15.42;43.55;102037.06;4933395;29;9536;-69
2022/04/02 08:22:24;;;;;;;;;0.00;0.00;;;;;15.42;43.75;102043.22;4933994;29;9515;-67
2022/04/02 08:24:49;;;;;;;;;0.00;0.00;;;;;15.43;43.69;102038.84;4934412;29;9428;-67
2022/04/02 08:27:32;;;;;;;;;0.00;0.00;;;;;15.42;43.48;102034.44;4933167;29;8838;-67
2022/04/02 08:30:11;;;;;;;;;0.00;0.00;;;;;15.43;43.65;102031.84;4934353;29;8876;-67
2022/04/02 08:33:02;;;;;;;;;0.00;0.00;;;;;15.43;43.43;102045.00;4933838;29;10030;-68
2022/04/02 08:35:42;;;;;;;;;0.33;0.00;;;;;15.46;43.92;102044.19;4934401;29;9426;-68
2022/04/02 08:38:33;;;;;;;;;0.00;0.00;;;;;15.50;43.71;102043.41;4925026;29;9303;-68
2022/04/02 08:41:34;;;;;;;;;0.00;0.00;;;;;15.53;43.75;102046.09;4914149;29;9310;-69
2022/04/02 08:44:36;;;;;;;;;0.00;0.00;;;;;15.55;43.60;102054.06;4914529;29;9465;-68
2022/04/02 08:47:14;;;;;;;;;0.00;0.00;;;;;15.55;43.84;102049.69;4913783;29;9579;-68
2022/04/02 08:49:41;;;;;;;;;0.00;0.00;;;;;15.57;43.73;102058.47;4914041;29;9531;-69
2022/04/02 08:52:43;;;;;;;;;0.00;0.00;;;;;15.56;43.74;102075.13;4913037;29;9481;-68
2022/04/02 08:55:14;;;;;;;;;0.00;0.00;;;;;15.58;43.83;102062.91;4913606;29;9399;-67
2022/04/02 08:57:46;;;;;;;;;0.00;0.00;;;;;15.58;43.54;102059.38;4914393;29;10341;-68
2022/04/02 09:00:13;;;;;;;;;0.00;0.00;;;;;15.60;43.76;102070.81;4913999;29;9537;-68
2022/04/02 09:02:39;;;;;;;;;0.00;0.00;;;;;15.59;43.66;102071.69;4912393;29;9497;-67
2022/04/02 09:05:21;;;;;;;;;0.00;0.00;;;;;15.60;43.51;102076.97;4914132;29;9678;-67
2022/04/02 09:08:15;;;;;;;;;0.00;0.00;;;;;15.62;43.71;102079.63;4913950;29;8998;-67
2022/04/02 09:10:54;;;;;;;;;0.00;0.00;;;;;15.62;43.58;102077.00;4906081;29;9346;-67
2022/04/02 09:13:59;;;;;;;;;0.00;0.00;;;;;15.62;43.58;102084.91;4915496;29;9446;-68
2022/04/02 09:16:36;;;;;;;;;0.00;0.00;;;;;15.64;43.55;102077.91;4913439;29;9532;-68
2022/04/02 09:19:11;;;;;;;;;0.00;0.00;;;;;15.64;43.52;102089.34;4913733;29;9481;-69
2022/04/02 09:21:57;;;;;;;;;1.00;0.00;;;;;15.64;43.55;102089.34;4911830;29;9458;-69
2022/04/02 09:25:11;;;;;;;;;0.00;0.00;;;;;15.69;44.23;102081.53;4913910;29;9405;-70
2022/04/02 09:27:59;;;;;;;;;0.00;0.00;;;;;15.81;45.96;102084.44;4914492;29;9377;-69
2022/04/02 09:30:27;;;;;;;;;0.67;0.67;;;;;15.95;46.86;102085.56;4913929;29;9539;-70
2022/04/02 09:33:25;;;;;;;;;0.00;0.00;;;;;16.08;47.59;102078.81;4914810;29;9336;-69
2022/04/02 09:36:23;;;;;;;;;0.00;0.00;;;;;16.21;50.39;102078.16;4913419;29;10211;-68
2022/04/02 09:39:10;;;;;;;;;1.00;0.33;;;;;16.31;51.67;102074.81;4914187;29;9691;-68
2022/04/02 09:41:50;;;;;;;;;1.00;0.00;;;;;16.38;51.86;102076.72;4914028;29;9568;-68
2022/04/02 09:44:41;;;;;;;;;0.00;0.00;;;;;16.43;52.37;102080.31;4917017;29;9457;-68
2022/04/02 09:47:21;;;;;;;;;1.00;1.00;;;;;16.37;53.07;102094.28;4920258;29;9281;-69
2022/04/02 09:50:11;;;;;;;;;0.00;0.00;;;;;16.38;54.33;102080.22;4919752;29;9276;-70
2022/04/02 09:52:43;;;;;;;;;1.00;1.00;;;;;16.36;54.33;102094.25;4920266;29;9373;-70
2022/04/02 09:55:20;;;;;;;;;0.00;0.00;;;;;16.41;53.79;102095.22;4918436;29;9316;-68
2022/04/02 09:57:45;;;;;;;;;0.00;0.00;;;;;16.41;53.89;102101.41;4918783;29;9317;-69
2022/04/02 10:00:13;;;;;;;;;0.00;0.00;;;;;16.43;53.58;102101.41;4919026;29;9334;-70
2022/04/02 10:03:00;;;;;;;;;0.50;0.00;;;;;16.43;53.50;102093.50;4919139;29;8816;-69
2022/04/02 10:05:46;;;;;;;;;1.00;1.00;;;;;16.41;52.61;102100.50;4911664;29;9372;-69
2022/04/02 10:08:13;;;;;;;;;0.00;0.00;;;;;16.40;52.81;102098.72;4918633;29;9472;-69
2022/04/02 10:10:43;;;;;;;;;0.00;0.00;;;;;16.41;52.01;102100.50;4919548;29;9395;-69
2022/04/02 10:13:12;;;;;;;;;0.00;0.00;;;;;16.39;51.68;102095.19;4918048;29;9371;-70
2022/04/02 10:15:43;;;;;;;;;0.00;0.00;;;;;16.42;51.22;102089.09;4918943;29;9395;-70
2022/04/02 10:18:11;;;;;;;;;0.00;0.00;;;;;16.44;50.89;102085.63;4918763;29;9463;-69
2022/04/02 10:20:38;;;;;;;;;0.00;0.00;;;;;16.46;50.52;102095.31;4918128;29;9335;-71
2022/04/02 10:23:24;;;;;;;;;1.00;0.00;;;;;16.46;50.01;102087.41;4918138;29;9584;-70
2022/04/02 10:26:07;;;;;;;;;0.00;0.00;;;;;16.44;49.32;102080.34;4918370;29;9470;-70
2022/04/02 10:28:40;;;;;;;;;0.00;0.00;;;;;16.45;49.03;102094.41;4920043;29;9411;-70
2022/04/02 10:31:16;;;;;;;;;0.00;0.00;;;;;16.46;48.62;102090.03;4918973;29;9236;-70
2022/04/02 10:33:48;;;;;;;;;0.00;0.00;;;;;16.47;48.60;102078.63;4917670;29;9482;-70
2022/04/02 10:36:14;;;;;;;;;0.67;0.00;;;;;16.43;48.29;102078.56;4918558;29;10108;-70
2022/04/02 10:38:48;;;;;;;;;0.00;0.00;;;;;16.46;48.24;102088.25;4918973;29;9316;-70
2022/04/02 10:41:21;;;;;;;;;0.00;0.00;;;;;16.47;47.80;102090.03;4918063;29;10947;-70
2022/04/02 10:44:00;;;;;;;;;0.00;0.00;;;;;16.48;47.55;102091.84;4918439;29;9217;-72
2022/04/02 10:46:26;;;;;;;;;0.00;0.00;;;;;16.51;47.44;102093.63;4919186;29;9358;-70
2022/04/02 10:49:08;;;;;;;;;0.33;0.00;;;;;16.47;47.35;102087.41;4919774;29;9299;-70
2022/04/02 10:51:40;;;;;;;;;0.00;0.00;;;;;16.44;47.13;102084.72;4920626;29;9157;-70
2022/04/02 10:54:07;;;;;;;;;0.00;0.00;;;;;16.48;47.19;102088.31;4918291;29;9441;-70
2022/04/02 10:56:42;;;;;;;;;0.00;0.00;;;;;16.65;46.50;102082.47;4916454;29;9450;-69
2022/04/02 10:59:09;;;;;;;;;0.00;0.00;;;;;16.77;46.65;102092.34;4915554;29;9386;-70
2022/04/02 11:01:39;;;;;;;;;0.00;0.00;;;;;16.68;46.34;102093.09;4915475;29;9245;-70
2022/04/02 11:04:30;;;;;;;;;0.00;0.00;;;;;16.61;46.62;102085.94;4915611;29;9403;-69
2022/04/02 11:06:56;;;;;;;;;0.00;0.00;;;;;16.56;46.64;102092.91;4915504;29;9435;-69
2022/04/02 11:09:30;;;;;;;;;0.00;0.00;;;;;16.55;46.74;102092.81;4914049;29;9314;-70
2022/04/02 11:12:07;;;;;;;;;0.00;0.00;;;;;16.56;46.43;102087.63;4916580;29;9306;-71
2022/04/02 11:14:38;;;;;;;;;0.00;0.00;;;;;16.51;46.59;102105.06;4915154;29;9401;-70
2022/04/02 11:17:03;;;;;;;;;0.00;0.00;;;;;16.49;46.60;102090.97;4915532;29;9364;-69
2022/04/02 11:22:24;;;;;;;;;0.00;0.00;;;;;16.49;46.41;102088.34;4914933;29;8809;-70
2022/04/02 11:24:59;;;;;;;;;0.00;0.00;;;;;16.48;46.40;102081.28;4915620;29;9404;-70
2022/04/02 11:27:28;;;;;;;;;0.00;0.00;;;;;16.51;46.33;102083.97;4914958;29;9254;-70
2022/04/02 11:30:01;;;;;;;;;0.33;0.33;;;;;16.52;46.39;102090.13;4914587;29;9340;-71
2022/04/02 11:32:36;;;;;;;;;0.00;0.00;;;;;16.51;45.99;102089.25;4915833;29;9410;-70
2022/04/02 11:35:07;;;;;;;;;0.00;0.00;;;;;16.51;46.21;102080.44;4915285;29;9237;-69
2022/04/02 11:37:44;;;;;;;;;0.00;0.00;;;;;16.52;46.15;102083.13;4906594;29;9311;-70
2022/04/02 11:40:14;;;;;;;;;0.33;0.00;;;;;16.53;46.12;102073.47;4915246;29;9469;-69
2022/04/02 11:42:46;;;;;;;;;1.00;0.00;;;;;16.51;45.89;102081.34;4914681;29;9406;-69
2022/04/02 11:45:17;;;;;;;;;0.00;0.00;;;;;16.50;45.65;102083.94;4914856;29;9388;-69
2022/04/02 11:47:53;;;;;;;;;0.00;0.00;;;;;16.53;45.56;102079.63;4914308;29;9402;-69
2022/04/02 11:50:27;;;;;;;;;0.00;0.00;;;;;16.53;45.86;102087.53;4914189;29;9394;-69